Time;durP1;ratioP1;P1;durP2;ratioP2;P2;SDS_P1;SDS_P2;PMS_P1;PMS_P2;Temp;Humidity;BMP_temperature;BMP_pressure;BME280_temperature;BME280_humidity;BME280_pressure;Samples;Min_cycle;Max_cycle;Signal;HPM_P1;HPM_P2
2021/03/07 00:00:17;;;;;;;19.70;12.50;;;;;;;;;;1032165;28;20021;-52
2021/03/07 00:00:47;;;;;;;23.63;12.97;;;;;;;;;;1035789;28;20037;-54
2021/03/07 00:01:17;;;;;;;20.03;11.63;;;;;;;;;;1036052;28;20478;-54
2021/03/07 00:01:48;;;;;;;20.97;11.33;;;;;;;;;;1035965;28;20092;-54
2021/03/07 00:02:18;;;;;;;21.37;12.40;;;;;;;;;;1034239;28;20014;-52
2021/03/07 00:02:49;;;;;;;21.93;11.93;;;;;;;;;;1036143;28;20017;-53
2021/03/07 00:03:19;;;;;;;21.83;12.77;;;;;;;;;;1036295;28;20064;-55
2021/03/07 00:03:49;;;;;;;22.83;12.73;;;;;;;;;;1036167;28;20018;-52
2021/03/07 00:04:19;;;;;;;24.20;12.77;;;;;;;;;;1036499;28;20455;-54
2021/03/07 00:04:50;;;;;;;21.27;12.53;;;;;;;;;;1036241;28;20041;-52
2021/03/07 00:05:20;;;;;;;21.73;12.47;;;;;;;;;;1035792;28;20045;-52
2021/03/07 00:05:50;;;;;;;21.67;12.57;;;;;;;;;;1036080;28;20470;-53
2021/03/07 00:06:21;;;;;;;21.87;12.57;;;;;;;;;;1035880;28;20022;-57
2021/03/07 00:06:51;;;;;;;23.17;12.33;;;;;;;;;;1036306;28;20032;-52
2021/03/07 00:07:21;;;;;;;19.90;12.20;;;;;;;;;;1036214;28;20018;-52
2021/03/07 00:07:53;;;;;;;22.67;12.00;;;;;;;;;;1036006;28;20515;-53
2021/03/07 00:08:23;;;;;;;22.63;11.70;;;;;;;;;;1032137;28;20006;-56
2021/03/07 00:08:53;;;;;;;22.33;12.27;;;;;;;;;;1035902;28;20475;-55
2021/03/07 00:09:24;;;;;;;20.13;12.13;;;;;;;;;;1035878;28;20014;-53
2021/03/07 00:09:54;;;;;;;21.30;12.53;;;;;;;;;;1035992;28;20013;-56
2021/03/07 00:10:24;;;;;;;18.63;11.73;;;;;;;;;;1036347;28;20006;-52
2021/03/07 00:10:54;;;;;;;22.57;12.33;;;;;;;;;;1036339;28;20011;-54
2021/03/07 00:11:25;;;;;;;19.23;11.47;;;;;;;;;;1036497;28;20113;-55
2021/03/07 00:11:55;;;;;;;20.00;11.73;;;;;;;;;;1036279;28;20014;-55
2021/03/07 00:12:25;;;;;;;20.70;12.87;;;;;;;;;;1036317;28;20431;-55
2021/03/07 00:12:56;;;;;;;19.20;12.23;;;;;;;;;;1036240;28;20018;-52
2021/03/07 00:13:26;;;;;;;19.17;12.30;;;;;;;;;;1035873;28;20055;-53
2021/03/07 00:13:56;;;;;;;18.73;12.00;;;;;;;;;;1036367;28;20522;-55
2021/03/07 00:14:26;;;;;;;20.10;12.07;;;;;;;;;;1036342;28;20060;-56
2021/03/07 00:14:57;;;;;;;18.17;11.33;;;;;;;;;;1036222;28;20006;-54
2021/03/07 00:15:27;;;;;;;21.63;11.90;;;;;;;;;;1036006;28;20099;-55
2021/03/07 00:15:57;;;;;;;16.73;11.27;;;;;;;;;;1036345;28;20423;-54
2021/03/07 00:16:27;;;;;;;20.63;11.30;;;;;;;;;;1036215;28;20010;-54
2021/03/07 00:16:58;;;;;;;17.63;11.63;;;;;;;;;;1036262;28;20017;-54
2021/03/07 00:17:28;;;;;;;19.03;11.03;;;;;;;;;;1036067;28;20513;-57
2021/03/07 00:17:58;;;;;;;19.03;11.40;;;;;;;;;;1036376;28;20006;-53
2021/03/07 00:18:29;;;;;;;18.10;11.23;;;;;;;;;;1036487;28;20006;-53
2021/03/07 00:18:59;;;;;;;20.57;11.10;;;;;;;;;;1035793;28;20536;-54
2021/03/07 00:19:29;;;;;;;19.17;11.33;;;;;;;;;;1035748;28;20010;-52
2021/03/07 00:19:59;;;;;;;16.27;10.63;;;;;;;;;;1035632;28;20014;-53
2021/03/07 00:20:30;;;;;;;17.00;11.07;;;;;;;;;;1035832;28;20570;-53
2021/03/07 00:21:00;;;;;;;17.30;11.00;;;;;;;;;;1036194;28;20006;-54
2021/03/07 00:21:30;;;;;;;20.80;11.23;;;;;;;;;;1036092;28;20013;-55
2021/03/07 00:22:01;;;;;;;17.20;11.90;;;;;;;;;;1036412;28;20006;-52
2021/03/07 00:22:31;;;;;;;15.13;10.63;;;;;;;;;;1036135;28;20010;-53
2021/03/07 00:23:01;;;;;;;16.47;10.97;;;;;;;;;;1036344;28;20020;-52
2021/03/07 00:23:31;;;;;;;18.20;11.20;;;;;;;;;;1036347;28;20467;-57
2021/03/07 00:24:02;;;;;;;19.83;11.20;;;;;;;;;;1036527;28;20443;-55
2021/03/07 00:24:32;;;;;;;21.80;11.57;;;;;;;;;;1036351;28;20018;-53
2021/03/07 00:25:04;;;;;;;17.70;11.23;;;;;;;;;;1036186;28;20438;-55
2021/03/07 00:25:34;;;;;;;16.90;11.05;;;;;;;;;;1036038;28;20022;-54
2021/03/07 00:26:04;;;;;;;16.57;11.13;;;;;;;;;;1031749;28;20109;-56
2021/03/07 00:26:34;;;;;;;14.77;10.47;;;;;;;;;;1036049;28;20093;-54
2021/03/07 00:27:04;;;;;;;16.07;10.77;;;;;;;;;;1036031;28;20018;-53
2021/03/07 00:27:35;;;;;;;16.63;10.80;;;;;;;;;;1036279;28;20040;-57
2021/03/07 00:28:05;;;;;;;16.73;10.40;;;;;;;;;;1036299;28;20097;-54
2021/03/07 00:28:37;;;;;;;14.63;10.05;;;;;;;;;;1036368;28;20010;-53
2021/03/07 00:29:07;;;;;;;15.07;10.47;;;;;;;;;;1036528;28;20068;-56
2021/03/07 00:29:37;;;;;;;19.20;11.30;;;;;;;;;;1037269;28;20371;-54
2021/03/07 00:30:14;;;;;;;16.83;9.90;;;;;;;;;;1036497;28;20208;-56
2021/03/07 00:30:44;;;;;;;16.27;10.38;;;;;;;;;;1036976;28;20025;-57
2021/03/07 00:31:15;;;;;;;17.73;11.03;;;;;;;;;;1036728;28;20013;-53
2021/03/07 00:31:46;;;;;;;16.77;10.47;;;;;;;;;;1036914;28;20045;-53
2021/03/07 00:32:16;;;;;;;15.60;10.20;;;;;;;;;;1037551;28;20054;-54
2021/03/07 00:32:47;;;;;;;17.87;10.20;;;;;;;;;;1037712;28;20366;-52
2021/03/07 00:33:17;;;;;;;17.00;10.47;;;;;;;;;;1037339;28;20013;-51
2021/03/07 00:33:47;;;;;;;16.10;10.23;;;;;;;;;;1037304;28;20018;-53
2021/03/07 00:34:17;;;;;;;15.10;9.90;;;;;;;;;;1032791;28;20082;-52
2021/03/07 00:34:48;;;;;;;16.47;10.70;;;;;;;;;;1034866;28;20092;-53
2021/03/07 00:35:18;;;;;;;20.20;11.20;;;;;;;;;;1037107;28;20105;-53
2021/03/07 00:35:48;;;;;;;18.20;10.97;;;;;;;;;;1037497;28;20487;-54
2021/03/07 00:36:18;;;;;;;17.97;11.63;;;;;;;;;;1037688;28;20141;-53
2021/03/07 00:36:51;;;;;;;17.20;10.27;;;;;;;;;;1037186;28;20018;-53
2021/03/07 00:37:21;;;;;;;18.15;10.32;;;;;;;;;;1037017;28;20049;-52
2021/03/07 00:37:51;;;;;;;16.77;10.90;;;;;;;;;;1037318;28;20030;-57
2021/03/07 00:38:22;;;;;;;19.77;10.20;;;;;;;;;;1037393;28;20014;-53
2021/03/07 00:38:53;;;;;;;16.10;10.07;;;;;;;;;;1036973;28;20048;-56
2021/03/07 00:39:23;;;;;;;15.80;10.05;;;;;;;;;;1036519;28;20010;-54
2021/03/07 00:39:54;;;;;;;15.60;10.03;;;;;;;;;;1036577;28;20454;-54
2021/03/07 00:40:24;;;;;;;16.43;10.33;;;;;;;;;;1036334;28;20032;-58
2021/03/07 00:40:54;;;;;;;15.10;9.57;;;;;;;;;;1036649;28;20079;-53
2021/03/07 00:41:24;;;;;;;16.33;9.90;;;;;;;;;;1036944;28;20013;-57
2021/03/07 00:41:55;;;;;;;15.63;10.10;;;;;;;;;;1036527;28;20018;-55
2021/03/07 00:42:25;;;;;;;15.03;9.37;;;;;;;;;;1032081;28;20025;-56
2021/03/07 00:42:55;;;;;;;15.53;9.90;;;;;;;;;;1032453;28;20014;-59
2021/03/07 00:43:26;;;;;;;18.07;10.53;;;;;;;;;;1032749;28;20022;-56
2021/03/07 00:44:04;;;;;;;17.90;10.37;;;;;;;;;;1036910;28;20455;-56
2021/03/07 00:45:08;;;;;;;15.30;10.00;;;;;;;;;;1032558;28;20038;-56
2021/03/07 00:45:46;;;;;;;18.17;10.18;;;;;;;;;;1028271;28;20423;-55
2021/03/07 00:46:17;;;;;;;14.47;9.87;;;;;;;;;;1028104;28;20030;-57
2021/03/07 00:46:47;;;;;;;14.63;10.27;;;;;;;;;;1036108;28;20157;-57
2021/03/07 00:47:17;;;;;;;16.17;10.43;;;;;;;;;;1036051;28;20506;-57
2021/03/07 00:47:48;;;;;;;14.07;10.60;;;;;;;;;;1036076;28;20041;-54
2021/03/07 00:48:18;;;;;;;18.83;9.90;;;;;;;;;;1031711;28;20030;-56
2021/03/07 00:48:48;;;;;;;16.97;10.27;;;;;;;;;;1031967;28;20010;-56
2021/03/07 00:49:19;;;;;;;14.57;10.47;;;;;;;;;;1031903;28;20018;-56
2021/03/07 00:49:49;;;;;;;16.00;10.23;;;;;;;;;;1032474;28;20021;-55
2021/03/07 00:50:20;;;;;;;16.30;9.83;;;;;;;;;;1035391;28;20124;-56
2021/03/07 00:50:51;;;;;;;16.58;10.13;;;;;;;;;;1032466;28;20114;-57
2021/03/07 00:51:21;;;;;;;15.90;10.00;;;;;;;;;;1032652;28;20106;-56
2021/03/07 00:51:52;;;;;;;16.80;10.80;;;;;;;;;;1028598;28;20094;-56
2021/03/07 00:52:22;;;;;;;16.50;10.40;;;;;;;;;;1028694;28;20061;-57
2021/03/07 00:52:53;;;;;;;15.47;10.27;;;;;;;;;;1028341;28;20050;-58
2021/03/07 00:53:23;;;;;;;15.40;10.57;;;;;;;;;;1028367;28;20042;-60
2021/03/07 00:53:54;;;;;;;15.30;9.60;;;;;;;;;;1035269;28;20454;-58
2021/03/07 00:54:24;;;;;;;16.83;10.07;;;;;;;;;;1032323;28;20053;-56
2021/03/07 00:54:55;;;;;;;19.17;10.87;;;;;;;;;;1028491;28;20126;-58
2021/03/07 00:55:25;;;;;;;16.83;10.40;;;;;;;;;;1028814;28;20023;-57
2021/03/07 00:55:55;;;;;;;18.47;11.07;;;;;;;;;;1028889;28;20026;-58
2021/03/07 00:56:25;;;;;;;18.17;10.60;;;;;;;;;;1032765;28;20026;-58
2021/03/07 00:56:56;;;;;;;16.93;10.27;;;;;;;;;;1036557;28;20569;-57
2021/03/07 00:57:26;;;;;;;18.80;10.90;;;;;;;;;;1036656;28;20034;-59
2021/03/07 00:57:56;;;;;;;16.93;10.50;;;;;;;;;;1036439;28;20121;-58
2021/03/07 00:58:27;;;;;;;18.03;10.60;;;;;;;;;;1036363;28;20084;-52
2021/03/07 00:58:57;;;;;;;15.83;10.37;;;;;;;;;;1036465;28;20032;-55
2021/03/07 00:59:27;;;;;;;16.33;10.57;;;;;;;;;;1036803;28;20021;-54
2021/03/07 00:59:58;;;;;;;17.03;10.70;;;;;;;;;;1036570;28;20383;-55
2021/03/07 01:00:28;;;;;;;22.17;11.27;;;;;;;;;;1036170;28;20065;-53
2021/03/07 01:00:59;;;;;;;20.03;11.23;;;;;;;;;;1035533;28;20026;-55
2021/03/07 01:01:29;;;;;;;16.00;10.30;;;;;;;;;;1036246;28;20422;-51
2021/03/07 01:01:59;;;;;;;19.00;11.07;;;;;;;;;;1035188;28;20018;-53
2021/03/07 01:02:29;;;;;;;18.73;11.30;;;;;;;;;;1032477;28;20145;-54
2021/03/07 01:03:00;;;;;;;19.87;11.27;;;;;;;;;;1032405;28;20396;-54
2021/03/07 01:03:30;;;;;;;19.93;11.40;;;;;;;;;;1035542;28;20033;-54
2021/03/07 01:04:00;;;;;;;16.63;10.47;;;;;;;;;;1036616;28;20149;-54
2021/03/07 01:04:31;;;;;;;17.47;11.23;;;;;;;;;;1036417;28;20030;-55
2021/03/07 01:05:01;;;;;;;19.77;11.50;;;;;;;;;;1036290;28;20084;-55
2021/03/07 01:05:31;;;;;;;21.00;12.83;;;;;;;;;;1036265;28;20022;-54
2021/03/07 01:06:02;;;;;;;17.57;11.33;;;;;;;;;;1036542;28;20546;-52
2021/03/07 01:06:32;;;;;;;19.40;11.90;;;;;;;;;;1036245;28;20140;-55
2021/03/07 01:07:02;;;;;;;17.17;11.63;;;;;;;;;;1036401;28;20041;-55
2021/03/07 01:07:33;;;;;;;19.50;11.93;;;;;;;;;;1032367;28;20128;-55
2021/03/07 01:08:03;;;;;;;17.00;10.73;;;;;;;;;;1032394;28;20149;-55
2021/03/07 01:08:33;;;;;;;16.43;11.20;;;;;;;;;;1028309;28;20019;-55
2021/03/07 01:09:04;;;;;;;17.10;11.10;;;;;;;;;;1027452;28;20210;-55
2021/03/07 01:09:34;;;;;;;16.60;11.03;;;;;;;;;;1032316;28;20034;-53
2021/03/07 01:10:08;;;;;;;17.33;10.63;;;;;;;;;;1029628;28;20445;-55
2021/03/07 01:10:39;;;;;;;21.33;11.35;;;;;;;;;;1036472;28;20148;-54
2021/03/07 01:11:10;;;;;;;21.90;12.35;;;;;;;;;;1033681;28;20391;-54
2021/03/07 01:11:40;;;;;;;21.13;12.87;;;;;;;;;;1034027;28;20507;-55
2021/03/07 01:12:10;;;;;;;22.37;12.63;;;;;;;;;;1035094;28;20052;-54
2021/03/07 01:12:41;;;;;;;21.27;12.20;;;;;;;;;;1034653;28;20117;-53
2021/03/07 01:13:12;;;;;;;22.67;11.50;;;;;;;;;;1033942;28;20454;-53
2021/03/07 01:13:42;;;;;;;19.20;11.35;;;;;;;;;;1032066;28;20097;-55
2021/03/07 01:14:13;;;;;;;19.70;12.10;;;;;;;;;;1028557;28;20105;-55
2021/03/07 01:14:43;;;;;;;22.13;11.80;;;;;;;;;;1028342;28;20077;-55
2021/03/07 01:15:14;;;;;;;18.87;11.63;;;;;;;;;;1024510;28;20043;-54
2021/03/07 01:15:44;;;;;;;23.07;12.37;;;;;;;;;;1024218;28;20472;-55
2021/03/07 01:16:14;;;;;;;20.03;11.40;;;;;;;;;;1026400;28;20011;-54
2021/03/07 01:16:45;;;;;;;22.40;11.63;;;;;;;;;;1026747;28;20093;-54
2021/03/07 01:17:15;;;;;;;16.47;10.97;;;;;;;;;;1029846;28;20420;-52
2021/03/07 01:17:45;;;;;;;21.80;11.87;;;;;;;;;;1028396;28;20049;-55
2021/03/07 01:18:16;;;;;;;20.63;12.40;;;;;;;;;;1026228;28;20472;-52
2021/03/07 01:18:46;;;;;;;17.03;10.93;;;;;;;;;;1026620;28;20011;-52
2021/03/07 01:19:16;;;;;;;18.77;11.17;;;;;;;;;;1026246;28;20110;-53
2021/03/07 01:19:47;;;;;;;18.10;11.73;;;;;;;;;;1025501;28;20011;-53
2021/03/07 01:20:17;;;;;;;21.83;11.17;;;;;;;;;;1022058;29;20026;-52
2021/03/07 01:20:48;;;;;;;17.70;10.60;;;;;;;;;;1023660;29;20090;-53
2021/03/07 01:21:18;;;;;;;17.20;10.50;;;;;;;;;;1018163;29;20026;-50
2021/03/07 01:21:48;;;;;;;15.60;10.27;;;;;;;;;;1025030;28;20011;-52
2021/03/07 01:22:19;;;;;;;16.97;10.23;;;;;;;;;;1028839;28;20023;-54
2021/03/07 01:22:49;;;;;;;14.97;10.07;;;;;;;;;;1028698;28;20030;-54
2021/03/07 01:23:20;;;;;;;16.30;10.07;;;;;;;;;;1034586;28;20053;-52
2021/03/07 01:23:51;;;;;;;16.77;10.20;;;;;;;;;;1033589;28;20055;-54
2021/03/07 01:24:21;;;;;;;13.57;9.50;;;;;;;;;;1033574;28;20484;-54
2021/03/07 01:24:51;;;;;;;16.27;10.23;;;;;;;;;;1030656;28;20038;-55
2021/03/07 01:25:22;;;;;;;13.70;9.67;;;;;;;;;;1030718;28;20238;-52
2021/03/07 01:25:52;;;;;;;15.82;10.05;;;;;;;;;;1032530;28;20021;-54
2021/03/07 01:26:23;;;;;;;16.23;9.77;;;;;;;;;;1028681;28;20022;-54
2021/03/07 01:26:53;;;;;;;20.27;9.43;;;;;;;;;;1028294;28;20019;-54
2021/03/07 01:27:24;;;;;;;14.07;9.60;;;;;;;;;;1028706;28;20019;-53
2021/03/07 01:27:54;;;;;;;15.03;10.33;;;;;;;;;;1032437;28;20356;-53
2021/03/07 01:28:24;;;;;;;17.00;10.47;;;;;;;;;;1036499;28;20029;-53
2021/03/07 01:28:55;;;;;;;14.60;9.23;;;;;;;;;;1036533;28;20100;-54
2021/03/07 01:29:25;;;;;;;15.40;9.93;;;;;;;;;;1036865;28;20412;-54
2021/03/07 01:29:55;;;;;;;15.07;9.57;;;;;;;;;;1036304;28;20014;-53
2021/03/07 01:30:26;;;;;;;15.37;9.83;;;;;;;;;;1032634;28;20017;-54
2021/03/07 01:30:56;;;;;;;14.80;9.67;;;;;;;;;;1032282;28;20124;-52
2021/03/07 01:31:26;;;;;;;14.50;9.83;;;;;;;;;;1032345;28;20097;-50
2021/03/07 01:31:57;;;;;;;13.63;9.63;;;;;;;;;;1028606;28;20019;-52
2021/03/07 01:32:27;;;;;;;15.83;10.03;;;;;;;;;;1028374;28;20034;-50
2021/03/07 01:32:57;;;;;;;17.03;9.40;;;;;;;;;;1028482;28;20123;-51
2021/03/07 01:33:28;;;;;;;15.90;9.83;;;;;;;;;;1028433;28;20023;-53
2021/03/07 01:33:58;;;;;;;14.93;10.23;;;;;;;;;;1031127;28;20014;-51
2021/03/07 01:34:28;;;;;;;18.10;10.13;;;;;;;;;;1036582;28;20049;-54
2021/03/07 01:34:58;;;;;;;17.23;10.10;;;;;;;;;;1036361;28;20016;-52
2021/03/07 01:35:29;;;;;;;14.07;9.80;;;;;;;;;;1036395;28;20045;-52
2021/03/07 01:36:03;;;;;;;15.17;9.97;;;;;;;;;;1035898;28;20020;-50
2021/03/07 01:36:33;;;;;;;16.30;9.80;;;;;;;;;;1034212;28;20018;-52
2021/03/07 01:37:03;;;;;;;15.30;9.87;;;;;;;;;;1035977;28;20026;-52
2021/03/07 01:37:34;;;;;;;16.03;9.90;;;;;;;;;;1032507;28;20013;-51
2021/03/07 01:38:04;;;;;;;15.00;9.97;;;;;;;;;;1032670;28;20013;-52
2021/03/07 01:38:34;;;;;;;14.57;9.80;;;;;;;;;;1036511;28;20386;-52
2021/03/07 01:39:05;;;;;;;15.27;9.33;;;;;;;;;;1032490;28;20015;-54
2021/03/07 01:39:35;;;;;;;14.37;9.40;;;;;;;;;;1032831;28;20014;-52
2021/03/07 01:40:06;;;;;;;14.53;9.27;;;;;;;;;;1032461;28;20015;-54
2021/03/07 01:40:44;;;;;;;14.75;10.43;;;;;;;;;;1032775;28;20015;-52
2021/03/07 01:41:14;;;;;;;17.70;10.20;;;;;;;;;;1036673;28;20026;-54
2021/03/07 01:41:45;;;;;;;14.20;9.67;;;;;;;;;;1036783;28;20018;-51
2021/03/07 01:42:15;;;;;;;14.60;9.03;;;;;;;;;;1036620;28;20021;-52
2021/03/07 01:42:48;;;;;;;20.43;9.63;;;;;;;;;;1036664;28;20387;-53
2021/03/07 01:43:19;;;;;;;16.13;9.98;;;;;;;;;;1036717;28;20438;-51
2021/03/07 01:43:50;;;;;;;14.33;9.00;;;;;;;;;;1036628;28;20014;-53
2021/03/07 01:44:20;;;;;;;14.83;8.90;;;;;;;;;;1031974;28;20254;-53
2021/03/07 01:44:50;;;;;;;15.60;10.23;;;;;;;;;;1028432;28;20007;-51
2021/03/07 01:45:28;;;;;;;12.50;9.53;;;;;;;;;;1028499;28;20007;-51
2021/03/07 01:45:58;;;;;;;16.13;9.70;;;;;;;;;;1028920;28;20007;-54
2021/03/07 01:46:29;;;;;;;14.03;9.33;;;;;;;;;;1032716;28;20019;-52
2021/03/07 01:46:59;;;;;;;15.10;9.00;;;;;;;;;;1032834;28;20431;-51
2021/03/07 01:47:30;;;;;;;17.80;9.37;;;;;;;;;;1032985;28;20054;-51
2021/03/07 01:48:04;;;;;;;16.00;9.32;;;;;;;;;;1036617;28;20097;-51
2021/03/07 01:48:34;;;;;;;14.98;9.73;;;;;;;;;;1032513;28;20353;-54
2021/03/07 01:49:05;;;;;;;16.70;10.87;;;;;;;;;;1028856;28;20065;-54
2021/03/07 01:49:35;;;;;;;19.50;11.20;;;;;;;;;;1024424;29;20392;-54
2021/03/07 01:50:06;;;;;;;20.50;12.10;;;;;;;;;;1024543;28;20094;-50
2021/03/07 01:50:37;;;;;;;20.00;11.63;;;;;;;;;;1024582;28;20111;-51
2021/03/07 01:51:07;;;;;;;16.95;10.50;;;;;;;;;;1024741;28;20023;-54
2021/03/07 01:51:38;;;;;;;23.83;12.27;;;;;;;;;;1025062;28;20110;-50
2021/03/07 01:52:08;;;;;;;18.27;11.57;;;;;;;;;;1025199;28;20148;-53
2021/03/07 01:52:38;;;;;;;21.20;12.30;;;;;;;;;;1024729;29;20030;-51
2021/03/07 01:53:08;;;;;;;25.40;12.77;;;;;;;;;;1024715;28;20018;-52
2021/03/07 01:53:39;;;;;;;22.10;13.27;;;;;;;;;;1028577;28;20082;-51
2021/03/07 01:54:09;;;;;;;20.50;12.77;;;;;;;;;;1033103;28;20022;-50
2021/03/07 01:54:39;;;;;;;21.50;12.90;;;;;;;;;;1036657;28;20459;-50
2021/03/07 01:55:10;;;;;;;21.47;12.13;;;;;;;;;;1036738;28;20006;-50
2021/03/07 01:55:40;;;;;;;20.43;11.40;;;;;;;;;;1036542;28;20080;-51
2021/03/07 01:56:11;;;;;;;19.70;12.10;;;;;;;;;;1036535;28;20097;-51
2021/03/07 01:56:41;;;;;;;20.23;11.90;;;;;;;;;;1028842;28;20376;-51
2021/03/07 01:57:11;;;;;;;18.77;10.60;;;;;;;;;;1024930;28;20064;-50
2021/03/07 01:57:42;;;;;;;19.67;10.67;;;;;;;;;;1025054;28;20389;-51
2021/03/07 01:58:17;;;;;;;18.63;11.70;;;;;;;;;;1028979;28;20126;-52
2021/03/07 01:58:48;;;;;;;17.50;11.55;;;;;;;;;;1033094;28;20015;-51
2021/03/07 01:59:21;;;;;;;20.27;11.47;;;;;;;;;;1033069;28;20415;-50
2021/03/07 01:59:52;;;;;;;17.35;11.00;;;;;;;;;;1032709;28;20021;-49
2021/03/07 02:00:22;;;;;;;20.23;10.90;;;;;;;;;;1028651;28;20109;-50
2021/03/07 02:00:52;;;;;;;17.67;10.43;;;;;;;;;;1028503;28;20097;-53
2021/03/07 02:01:23;;;;;;;17.17;11.37;;;;;;;;;;1028656;28;20014;-52
2021/03/07 02:01:53;;;;;;;17.47;10.83;;;;;;;;;;1028723;28;20433;-50
2021/03/07 02:02:23;;;;;;;19.00;11.33;;;;;;;;;;1032466;28;20093;-52
2021/03/07 02:02:54;;;;;;;17.57;10.67;;;;;;;;;;1032707;28;20017;-52
2021/03/07 02:03:24;;;;;;;14.50;10.23;;;;;;;;;;1032926;28;20025;-50
2021/03/07 02:03:54;;;;;;;15.83;10.60;;;;;;;;;;1033163;28;20014;-50
2021/03/07 02:04:25;;;;;;;17.57;10.50;;;;;;;;;;1032778;28;20021;-50
2021/03/07 02:04:55;;;;;;;16.67;10.87;;;;;;;;;;1028619;28;20006;-52
2021/03/07 02:05:25;;;;;;;15.90;10.40;;;;;;;;;;1028231;28;20015;-50
2021/03/07 02:05:55;;;;;;;18.37;11.50;;;;;;;;;;1024736;29;20110;-50
2021/03/07 02:06:26;;;;;;;17.53;10.80;;;;;;;;;;1028845;28;20022;-50
2021/03/07 02:06:56;;;;;;;19.60;10.87;;;;;;;;;;1032562;28;20105;-50
2021/03/07 02:07:26;;;;;;;15.13;10.80;;;;;;;;;;1032317;28;20072;-50
2021/03/07 02:07:57;;;;;;;22.97;10.57;;;;;;;;;;1033071;28;20014;-50
2021/03/07 02:08:27;;;;;;;19.83;10.57;;;;;;;;;;1032623;28;20017;-50
2021/03/07 02:08:57;;;;;;;16.17;10.70;;;;;;;;;;1032726;28;20021;-50
2021/03/07 02:09:27;;;;;;;15.77;10.30;;;;;;;;;;1032689;28;20022;-53
2021/03/07 02:09:58;;;;;;;19.33;10.57;;;;;;;;;;1032559;28;20049;-53
2021/03/07 02:10:30;;;;;;;16.83;11.00;;;;;;;;;;1033238;28;20033;-50
2021/03/07 02:11:00;;;;;;;17.00;10.70;;;;;;;;;;1028922;28;20179;-50
2021/03/07 02:11:30;;;;;;;14.73;10.27;;;;;;;;;;1032390;28;20117;-52
2021/03/07 02:12:01;;;;;;;15.87;10.23;;;;;;;;;;1028585;28;20003;-52
2021/03/07 02:12:32;;;;;;;17.80;9.93;;;;;;;;;;1028448;28;20011;-52
2021/03/07 02:13:03;;;;;;;15.18;10.23;;;;;;;;;;1028234;28;20050;-50
2021/03/07 02:13:34;;;;;;;17.50;11.07;;;;;;;;;;1020468;29;20220;-51
2021/03/07 02:14:05;;;;;;;15.27;10.52;;;;;;;;;;1020514;29;20099;-50
2021/03/07 02:14:36;;;;;;;17.08;10.77;;;;;;;;;;1020729;29;20377;-52
2021/03/07 02:15:07;;;;;;;18.33;10.80;;;;;;;;;;1020677;29;20481;-51
2021/03/07 02:15:38;;;;;;;15.32;10.48;;;;;;;;;;1024965;28;20043;-50
2021/03/07 02:16:10;;;;;;;17.67;10.43;;;;;;;;;;1024535;28;20081;-50
2021/03/07 02:16:40;;;;;;;16.20;10.00;;;;;;;;;;1028297;28;20049;-50
2021/03/07 02:17:10;;;;;;;18.10;10.20;;;;;;;;;;1028260;28;20093;-51
2021/03/07 02:17:41;;;;;;;15.50;10.33;;;;;;;;;;1028502;28;20025;-50
2021/03/07 02:18:11;;;;;;;16.17;10.97;;;;;;;;;;1032282;28;20395;-51
2021/03/07 02:18:41;;;;;;;17.47;10.07;;;;;;;;;;1028190;28;20014;-53
2021/03/07 02:19:12;;;;;;;14.67;10.40;;;;;;;;;;1028580;28;20498;-49
2021/03/07 02:19:42;;;;;;;16.93;10.23;;;;;;;;;;1024535;28;20031;-50
2021/03/07 02:20:13;;;;;;;14.40;10.03;;;;;;;;;;1028690;28;20069;-51
2021/03/07 02:20:47;;;;;;;18.52;10.38;;;;;;;;;;1032539;28;20022;-50
2021/03/07 02:21:21;;;;;;;17.90;10.70;;;;;;;;;;1032792;28;20100;-50
2021/03/07 02:21:52;;;;;;;16.05;11.10;;;;;;;;;;1032414;28;20056;-51
2021/03/07 02:22:27;;;;;;;14.80;10.63;;;;;;;;;;1032246;28;20025;-50
2021/03/07 02:22:59;;;;;;;14.43;10.35;;;;;;;;;;1032622;28;20018;-50
2021/03/07 02:23:30;;;;;;;16.63;10.35;;;;;;;;;;1024988;28;20041;-50
2021/03/07 02:24:09;;;;;;;17.98;10.88;;;;;;;;;;1024529;29;20094;-50
2021/03/07 02:24:39;;;;;;;15.02;10.43;;;;;;;;;;1024772;29;20063;-51
2021/03/07 02:25:10;;;;;;;14.87;10.30;;;;;;;;;;1022905;28;20087;-50
2021/03/07 02:25:41;;;;;;;18.98;10.75;;;;;;;;;;1029588;28;20015;-50
2021/03/07 02:26:11;;;;;;;16.67;10.40;;;;;;;;;;1032893;28;20052;-50
2021/03/07 02:26:45;;;;;;;15.70;10.73;;;;;;;;;;1032251;28;20363;-50
2021/03/07 02:27:15;;;;;;;15.02;10.25;;;;;;;;;;1028072;28;20376;-53
2021/03/07 02:27:45;;;;;;;17.43;10.50;;;;;;;;;;1028573;28;20105;-51
2021/03/07 02:28:15;;;;;;;14.60;10.00;;;;;;;;;;1029223;28;20022;-51
2021/03/07 02:28:47;;;;;;;16.67;10.27;;;;;;;;;;1032364;28;20015;-53
2021/03/07 02:29:18;;;;;;;16.63;9.95;;;;;;;;;;1032562;28;20047;-52
2021/03/07 02:29:48;;;;;;;15.30;9.73;;;;;;;;;;1032440;28;20011;-50
2021/03/07 02:30:18;;;;;;;18.60;10.00;;;;;;;;;;1032251;28;20250;-50
2021/03/07 02:30:48;;;;;;;13.20;9.60;;;;;;;;;;1032301;28;20018;-50
2021/03/07 02:31:20;;;;;;;13.43;9.47;;;;;;;;;;1032482;28;20010;-51
2021/03/07 02:31:54;;;;;;;13.60;9.13;;;;;;;;;;1032454;28;20026;-51
2021/03/07 02:32:24;;;;;;;14.63;9.60;;;;;;;;;;1032567;28;20443;-49
2021/03/07 02:33:00;;;;;;;14.33;10.40;;;;;;;;;;1028527;28;20011;-51
2021/03/07 02:33:31;;;;;;;15.93;9.27;;;;;;;;;;1029219;28;20011;-49
2021/03/07 02:34:10;;;;;;;15.98;9.95;;;;;;;;;;1032200;28;20521;-50
2021/03/07 02:34:41;;;;;;;14.98;9.38;;;;;;;;;;1034109;28;20065;-50
2021/03/07 02:35:19;;;;;;;14.50;9.63;;;;;;;;;;1035105;28;20391;-50
2021/03/07 02:35:51;;;;;;;18.65;9.82;;;;;;;;;;1036229;28;20014;-50
2021/03/07 02:36:24;;;;;;;16.73;9.98;;;;;;;;;;1036366;28;20044;-52
2021/03/07 02:36:55;;;;;;;15.45;9.50;;;;;;;;;;1027925;28;20019;-51
2021/03/07 02:37:25;;;;;;;13.50;9.20;;;;;;;;;;1028405;28;20038;-52
2021/03/07 02:37:58;;;;;;;14.10;9.90;;;;;;;;;;1028682;28;20368;-51
2021/03/07 02:38:28;;;;;;;15.65;9.43;;;;;;;;;;1032471;28;20010;-53
2021/03/07 02:38:59;;;;;;;18.80;9.80;;;;;;;;;;1024761;28;20015;-50
2021/03/07 02:39:30;;;;;;;15.57;10.35;;;;;;;;;;1028041;28;20142;-50
2021/03/07 02:40:00;;;;;;;14.45;9.68;;;;;;;;;;1024185;29;20016;-50
2021/03/07 02:40:31;;;;;;;13.80;9.47;;;;;;;;;;1020757;28;20106;-50
2021/03/07 02:41:01;;;;;;;14.30;10.40;;;;;;;;;;1028306;28;20034;-51
2021/03/07 02:41:31;;;;;;;21.67;9.67;;;;;;;;;;1028325;28;20105;-50
2021/03/07 02:42:03;;;;;;;15.20;9.73;;;;;;;;;;1024394;28;20074;-51
2021/03/07 02:42:33;;;;;;;15.68;9.73;;;;;;;;;;1031223;28;20534;-53
2021/03/07 02:43:03;;;;;;;18.13;9.23;;;;;;;;;;1028413;28;20071;-51
2021/03/07 02:43:36;;;;;;;14.40;9.50;;;;;;;;;;1032123;28;20432;-52
2021/03/07 02:44:07;;;;;;;16.00;9.45;;;;;;;;;;1032631;28;20026;-50
2021/03/07 02:44:40;;;;;;;14.95;8.98;;;;;;;;;;1032985;28;20017;-50
2021/03/07 02:45:11;;;;;;;14.32;9.95;;;;;;;;;;1032278;28;20156;-54
2021/03/07 02:45:42;;;;;;;17.90;9.87;;;;;;;;;;1032458;28;20022;-51
2021/03/07 02:46:13;;;;;;;13.88;9.82;;;;;;;;;;1032695;28;20038;-53
2021/03/07 02:46:44;;;;;;;12.63;9.48;;;;;;;;;;1031970;28;20497;-51
2021/03/07 02:47:14;;;;;;;15.03;9.50;;;;;;;;;;1032322;28;20057;-50
2021/03/07 02:47:46;;;;;;;13.17;9.50;;;;;;;;;;1032557;28;20018;-50
2021/03/07 02:48:19;;;;;;;16.27;9.77;;;;;;;;;;1032214;28;20014;-51
2021/03/07 02:48:53;;;;;;;15.55;10.30;;;;;;;;;;1032119;28;20057;-52
2021/03/07 02:49:25;;;;;;;12.98;9.38;;;;;;;;;;1032661;28;20029;-53
2021/03/07 02:49:56;;;;;;;12.82;8.75;;;;;;;;;;1032098;28;20013;-49
2021/03/07 02:50:28;;;;;;;15.07;9.50;;;;;;;;;;1032099;28;20014;-51
2021/03/07 02:50:59;;;;;;;14.45;9.18;;;;;;;;;;1031825;28;20015;-52
2021/03/07 02:51:29;;;;;;;17.40;10.03;;;;;;;;;;1028117;28;20014;-51
2021/03/07 02:52:00;;;;;;;16.90;9.43;;;;;;;;;;1027592;28;20018;-50
2021/03/07 02:52:31;;;;;;;13.55;9.48;;;;;;;;;;1028219;28;20039;-51
2021/03/07 02:53:02;;;;;;;15.37;9.37;;;;;;;;;;1028688;28;20007;-50
2021/03/07 02:53:33;;;;;;;15.27;9.43;;;;;;;;;;1032174;28;20010;-51
2021/03/07 02:54:04;;;;;;;15.33;8.90;;;;;;;;;;1036340;28;20024;-50
2021/03/07 02:54:35;;;;;;;14.13;8.85;;;;;;;;;;1033022;28;20010;-51
2021/03/07 02:55:07;;;;;;;14.55;9.10;;;;;;;;;;1036677;28;20006;-50
2021/03/07 02:55:37;;;;;;;13.35;9.10;;;;;;;;;;1032482;28;20033;-50
2021/03/07 02:56:08;;;;;;;12.73;9.03;;;;;;;;;;1036565;28;20458;-52
2021/03/07 02:56:39;;;;;;;13.85;9.20;;;;;;;;;;1037079;28;20013;-53
2021/03/07 02:57:09;;;;;;;15.50;9.27;;;;;;;;;;1036684;28;20021;-50
2021/03/07 02:57:39;;;;;;;13.80;9.63;;;;;;;;;;1032754;28;20512;-50
2021/03/07 02:58:11;;;;;;;13.97;9.37;;;;;;;;;;1028358;28;20022;-51
2021/03/07 02:58:42;;;;;;;14.00;9.13;;;;;;;;;;1028359;28;20495;-53
2021/03/07 02:59:13;;;;;;;14.90;9.43;;;;;;;;;;1028869;28;20019;-50
2021/03/07 02:59:43;;;;;;;13.85;9.25;;;;;;;;;;1024692;28;20004;-50
2021/03/07 03:00:14;;;;;;;14.00;9.63;;;;;;;;;;1028472;28;20023;-51
2021/03/07 03:00:50;;;;;;;16.37;9.70;;;;;;;;;;1028786;28;20050;-51